createdAt,value
2016-04-09T00:17:05.644Z,100
2016-04-09T00:17:16.050Z,100
2016-04-09T00:17:40.428Z,100
2016-04-09T00:17:50.491Z,100
2016-04-09T00:18:00.710Z,100
2016-04-09T00:18:11.069Z,100
2016-04-09T00:19:13.743Z,100
2016-04-09T00:19:23.759Z,100
2016-04-09T00:19:33.746Z,100
2016-04-09T00:20:39.577Z,100
2016-04-09T00:20:51.030Z,100
2016-04-09T00:21:02.061Z,100
2016-04-09T00:21:12.343Z,100
2016-04-09T00:21:22.905Z,100
2016-04-09T00:21:32.877Z,100
2016-04-09T00:21:42.814Z,99
2016-04-09T00:23:46.851Z,99
2016-04-09T00:23:56.929Z,100
2016-04-09T00:24:08.523Z,99
2016-04-09T00:24:18.554Z,99
2016-04-09T00:24:28.697Z,99
2016-04-09T00:24:38.994Z,99
2016-04-09T00:24:48.916Z,99
2016-04-09T00:24:59.432Z,100
2016-04-09T00:25:10.119Z,100
2016-04-09T01:56:51.810Z,100
2016-04-09T01:58:05.062Z,100
2016-04-09T01:58:29.393Z,100
2016-04-09T01:58:40.471Z,100
2016-04-09T01:58:51.112Z,100
2016-04-09T01:59:01.237Z,100
2016-04-09T01:59:11.268Z,100
2016-04-09T01:59:29.849Z,100
2016-04-09T01:59:40.365Z,100
2016-04-09T01:59:57.740Z,100
2016-04-09T02:00:08.286Z,100
2016-04-09T02:00:26.243Z,100
2016-04-09T02:00:36.868Z,100
2016-04-09T02:00:53.961Z,100
2016-04-09T02:01:11.539Z,100
2016-04-09T02:01:29.214Z,100
2016-04-09T02:01:39.246Z,100
2016-04-09T02:01:49.167Z,100
2016-04-09T02:01:59.105Z,100
2016-04-09T02:02:09.792Z,100
2016-04-09T02:02:19.871Z,100
2016-04-09T02:02:29.966Z,100
2016-04-09T02:03:40.251Z,100
2016-04-09T02:03:50.188Z,100
2016-04-09T02:04:00.485Z,100
2016-04-09T02:04:10.766Z,100
2016-04-09T02:04:20.907Z,100
2016-04-09T02:04:31.065Z,100
2016-04-09T02:04:49.456Z,100
2016-04-09T02:05:00.159Z,100
2016-04-09T02:05:11.471Z,100
2016-04-09T02:05:59.396Z,100
2016-04-09T02:06:09.693Z,100
2016-04-09T02:07:19.196Z,100
2016-04-09T02:07:37.370Z,100
2016-04-09T02:07:47.261Z,100
2016-04-09T02:07:57.557Z,100
2016-04-09T02:09:03.029Z,100
2016-04-09T02:09:20.842Z,100
2016-04-09T02:09:32.141Z,100
2016-04-09T02:09:42.078Z,100
2016-04-09T02:09:56.922Z,100
2016-04-09T02:10:07.172Z,100
2016-04-09T02:10:17.906Z,100
2016-04-09T02:10:29.378Z,100
2016-04-09T02:10:40.628Z,100
2016-04-09T02:10:50.581Z,100
2016-04-09T02:11:00.612Z,100
2016-04-09T02:11:19.112Z,100
2016-04-09T02:13:23.150Z,100
2016-04-09T02:13:33.589Z,100
2016-04-09T02:13:43.480Z,100
2016-04-09T02:13:53.761Z,100
2016-04-09T02:14:04.292Z,100
2016-04-09T02:14:14.261Z,100
2016-04-09T02:14:25.812Z,100
2016-04-09T02:15:07.765Z,100
2016-04-09T02:15:19.124Z,100
2016-04-09T02:15:29.189Z,100
2016-04-09T02:15:40.079Z,100
2016-04-09T02:15:50.079Z,100
2016-04-09T02:16:00.548Z,100
2016-04-09T02:16:12.017Z,100
2016-04-09T02:16:22.517Z,100
2016-04-09T02:16:32.692Z,100
2016-04-09T02:17:38.351Z,100
2016-04-09T02:17:49.226Z,100
2016-04-09T02:17:59.148Z,100
2016-04-09T02:18:09.664Z,100
2016-04-09T02:18:20.695Z,100
2016-04-09T02:18:30.806Z,100
2016-04-09T02:19:35.950Z,100
2016-04-09T02:19:45.887Z,100
2016-04-09T02:19:57.747Z,100
2016-04-09T02:20:07.872Z,100
2016-04-09T02:20:25.686Z,100
2016-04-09T02:20:36.811Z,100
2016-04-09T02:20:47.202Z,100
2016-04-09T02:20:57.124Z,100
2016-04-09T02:21:07.639Z,100
2016-04-09T02:21:18.186Z,100
2016-04-09T02:21:29.408Z,100
2016-04-09T02:22:30.677Z,100
2016-04-09T02:23:40.711Z,100
2016-04-09T02:23:50.898Z,100
2016-04-09T03:54:53.549Z,100
2016-04-09T03:55:12.845Z,100
2016-04-09T03:55:23.408Z,100
2016-04-09T03:55:41.755Z,100
2016-04-09T03:55:53.177Z,100
2016-04-09T03:56:03.942Z,100
2016-04-09T03:56:13.864Z,100
2016-04-09T03:56:24.130Z,100
2016-04-09T03:56:41.116Z,100
2016-04-09T03:56:51.054Z,100
2016-04-09T03:57:00.850Z,100
2016-04-09T03:57:10.835Z,100
2016-04-09T03:57:21.429Z,100
2016-04-09T03:58:29.590Z,100
2016-04-09T03:58:39.777Z,100
2016-04-09T03:58:49.699Z,100
2016-04-09T04:04:00.074Z,100
2016-04-09T04:04:10.386Z,100
2016-04-09T04:04:20.558Z,100
2016-04-09T04:04:30.372Z,100
2016-04-09T04:04:40.638Z,100
2016-04-09T04:04:57.732Z,100
2016-04-09T04:05:07.732Z,100
2016-04-09T04:06:14.938Z,100
2016-04-09T04:06:24.969Z,100
2016-04-09T04:06:36.316Z,100
2016-04-09T04:06:46.269Z,100
2016-04-09T04:06:56.722Z,100
2016-04-09T04:07:07.316Z,100
2016-04-09T04:07:24.128Z,100
2016-04-09T04:07:41.287Z,100
2016-04-09T04:07:51.755Z,100
2016-04-09T04:09:05.430Z,100
2016-04-09T04:09:15.399Z,100
2016-04-09T04:09:25.274Z,100
2016-04-09T04:12:48.988Z,100
2016-04-09T04:12:58.863Z,100
2016-04-09T04:13:15.801Z,100
2016-04-09T04:13:25.585Z,100
2016-04-09T04:13:35.554Z,100
2016-04-09T04:13:45.476Z,100
2016-04-09T04:13:55.210Z,100
2016-04-09T04:14:05.116Z,100
2016-04-09T04:14:14.851Z,100
2016-04-09T04:14:24.913Z,100
2016-04-09T04:14:35.103Z,100
2016-04-09T04:14:44.853Z,100
2016-04-09T04:14:57.603Z,100
2016-04-09T04:15:08.571Z,100
2016-04-09T04:15:20.556Z,100
2016-04-09T04:15:30.449Z,100
2016-04-09T04:15:47.371Z,100
2016-04-09T04:15:57.762Z,100
2016-04-09T04:16:15.152Z,100
2016-04-09T04:16:24.981Z,100
2016-04-09T04:16:34.795Z,100
2016-04-09T04:16:45.029Z,100
2016-04-09T04:16:55.451Z,100
2016-04-09T04:17:05.279Z,100
2016-04-09T04:17:15.014Z,100
2016-04-09T04:17:32.111Z,100
2016-04-09T04:17:42.626Z,100
2016-04-09T04:17:52.423Z,100
2016-04-09T04:18:02.423Z,100
2016-04-09T04:18:12.532Z,100
2016-04-09T04:18:23.392Z,100
2016-04-09T04:18:33.832Z,100
2016-04-09T04:18:43.645Z,100
2016-04-09T04:19:05.473Z,100
2016-04-09T04:19:22.785Z,100
2016-04-09T04:19:32.709Z,100
2016-04-09T04:19:42.553Z,100
2016-04-09T04:19:52.459Z,100
2016-04-09T04:20:02.662Z,100
2016-04-09T04:21:10.447Z,100
2016-04-09T04:21:27.417Z,100
2016-04-09T04:21:44.511Z,100
2016-04-09T04:21:54.449Z,100
2016-04-09T04:22:03.839Z,100
2016-04-09T04:22:13.839Z,100
2016-04-09T04:23:28.517Z,100
2016-04-09T04:23:45.627Z,100
2016-04-09T04:24:02.705Z,100
2016-04-09T04:24:13.330Z,100
2016-04-09T04:25:17.457Z,100
2016-04-09T04:25:29.101Z,100
2016-04-09T04:25:38.820Z,100
2016-04-09T04:25:49.211Z,100
2016-04-09T04:26:00.539Z,100
2016-04-09T04:27:08.494Z,100
2016-04-09T04:27:18.447Z,100
2016-04-09T04:27:28.247Z,100
2016-04-09T04:27:38.778Z,100
2016-04-09T04:27:49.184Z,100
2016-04-09T05:31:40.216Z,100
2016-04-09T05:32:49.359Z,100
2016-04-09T05:33:07.797Z,100
2016-04-09T05:33:17.844Z,100
2016-04-09T05:33:29.315Z,100
2016-04-09T05:33:47.861Z,100
2016-04-09T05:33:59.893Z,100
2016-04-09T05:34:10.111Z,100
2016-04-09T05:34:20.065Z,100
2016-04-09T05:34:29.864Z,100
2016-04-09T05:34:40.786Z,100
2016-04-09T05:34:51.208Z,100
2016-04-09T05:35:01.052Z,100
2016-04-09T05:35:11.193Z,100
2016-04-09T05:36:25.241Z,100
2016-04-09T05:37:28.826Z,100
2016-04-09T05:37:45.857Z,100
2016-04-09T05:38:03.185Z,100
2016-04-09T05:38:13.263Z,100
2016-04-09T05:38:23.060Z,100
2016-04-09T05:38:40.063Z,100
2016-04-09T05:38:50.000Z,100
2016-04-09T05:38:59.813Z,100
2016-04-09T05:39:09.266Z,100
2016-04-09T05:39:21.219Z,100
2016-04-09T05:39:38.207Z,100
2016-04-09T05:39:48.050Z,100
2016-04-09T05:40:48.615Z,100
2016-04-09T05:41:05.615Z,100
2016-04-09T05:41:15.318Z,100
2016-04-09T05:41:26.571Z,100
2016-04-09T05:41:44.196Z,100
2016-04-09T05:41:55.024Z,100
2016-04-09T05:42:12.993Z,100
2016-04-09T05:42:22.821Z,100
2016-04-09T05:42:32.557Z,100
2016-04-09T05:42:57.479Z,100
2016-04-09T05:43:14.917Z,100
2016-04-09T05:44:20.810Z,100
2016-04-09T05:44:30.735Z,100
2016-04-09T05:44:41.079Z,100
2016-04-09T05:44:51.501Z,100
2016-04-09T05:46:08.081Z,100
2016-04-09T05:46:20.347Z,100
2016-04-09T05:46:30.803Z,100
2016-04-09T05:46:41.350Z,100
2016-04-09T05:47:47.180Z,100
2016-04-09T05:48:05.008Z,100
2016-04-09T05:48:14.883Z,100
2016-04-09T05:48:25.352Z,100
2016-04-09T05:48:36.667Z,100
2016-04-09T05:48:46.558Z,100
2016-04-09T05:48:56.526Z,100
2016-04-09T05:49:13.730Z,100
2016-04-09T05:49:23.730Z,100
2016-04-09T05:49:34.404Z,100
2016-04-09T05:50:02.826Z,100
2016-04-09T05:50:13.842Z,100
2016-04-09T05:50:24.358Z,100
2016-04-09T05:50:34.314Z,100
2016-04-09T05:50:44.595Z,100
2016-04-09T05:50:54.814Z,100
2016-04-09T05:51:12.501Z,100
2016-04-09T05:51:22.376Z,100
2016-04-09T05:51:32.300Z,100
2016-04-09T05:51:42.847Z,100
2016-04-09T05:51:52.863Z,99
2016-04-09T05:52:03.222Z,99
2016-04-09T05:52:22.081Z,99
2016-04-09T05:52:33.475Z,99
2016-04-09T05:52:50.678Z,99
2016-04-09T05:53:00.709Z,99
2016-04-09T05:53:11.287Z,99
2016-04-09T06:26:13.877Z,91
2016-04-09T06:26:24.502Z,91
2016-04-09T06:26:35.442Z,90
2016-04-09T06:26:46.239Z,90
2016-04-09T06:26:56.458Z,90
2016-04-09T06:27:08.176Z,90
2016-04-09T06:27:18.426Z,90
2016-04-09T06:27:28.551Z,89
2016-04-09T06:27:39.711Z,89
2016-04-09T06:27:49.695Z,89
2016-04-09T06:27:59.664Z,89
2016-04-09T06:28:11.367Z,89
2016-04-09T06:28:21.757Z,88
2016-04-09T06:28:31.775Z,88
2016-04-09T06:28:43.603Z,88
2016-04-09T06:28:53.666Z,88
2016-04-09T06:30:07.091Z,88
2016-04-09T06:31:18.859Z,89
2016-04-09T06:31:29.221Z,89
2016-04-09T06:31:39.330Z,88
2016-04-09T06:31:57.986Z,88
2016-04-09T06:32:09.783Z,88
2016-04-09T06:32:20.799Z,88
2016-04-09T06:32:31.505Z,87
2016-04-09T06:32:42.052Z,88
2016-04-09T06:32:59.989Z,88
2016-04-09T06:34:05.788Z,88
2016-04-09T06:34:16.054Z,87
2016-04-09T06:34:28.413Z,87
2016-04-09T06:34:38.558Z,87
2016-04-09T06:34:52.917Z,87
2016-04-09T06:35:04.698Z,87
2016-04-09T06:35:47.247Z,86
2016-04-09T06:35:57.888Z,86
2016-04-09T06:38:04.206Z,82
2016-04-09T06:38:15.706Z,83
2016-04-09T06:38:26.675Z,82
2016-04-09T06:38:36.990Z,83
2016-04-09T06:38:47.786Z,83
2016-04-09T06:38:57.755Z,83
2016-04-09T06:39:15.927Z,83
2016-04-09T06:39:25.958Z,83
2016-04-09T06:39:43.649Z,83
2016-04-09T06:39:55.133Z,83
2016-04-09T06:40:07.774Z,83
2016-04-09T06:40:19.461Z,82
2016-04-09T06:40:29.463Z,81
2016-04-09T06:40:40.026Z,81
2016-04-09T06:40:50.635Z,81
2016-04-09T06:41:03.276Z,81
2016-04-09T06:41:16.745Z,80
2016-04-09T06:41:34.858Z,79
2016-04-09T06:41:45.670Z,78
2016-04-09T06:41:57.249Z,77
2016-04-09T06:42:15.014Z,77
2016-04-09T06:42:26.639Z,77
2016-04-09T06:42:44.516Z,76
2016-04-09T06:42:55.563Z,76
2016-04-09T06:43:06.876Z,76
2016-04-09T06:43:24.657Z,75
2016-04-09T06:43:34.738Z,75
2016-04-09T06:43:44.800Z,74
2016-04-09T06:43:56.707Z,74
2016-04-09T06:44:07.175Z,74
2016-04-09T08:51:27.722Z,65
2016-04-09T08:51:39.284Z,65
2016-04-09T08:53:55.902Z,64
2016-04-09T08:54:08.792Z,65
2016-04-09T08:54:27.683Z,65
2016-04-09T08:55:36.717Z,64
2016-04-09T09:00:34.683Z,63
2016-04-09T09:00:51.185Z,63
2016-04-09T09:01:04.482Z,62
2016-04-09T09:01:16.232Z,62
2016-04-09T09:02:28.314Z,63
2016-04-09T09:02:46.394Z,63
2016-04-09T09:03:52.632Z,62
2016-04-09T09:04:06.663Z,62
2016-04-09T09:04:19.538Z,62
2016-04-09T09:05:31.869Z,62
2016-04-09T09:05:43.794Z,62
2016-04-09T09:05:54.310Z,62
2016-04-09T09:07:53.159Z,62
2016-04-09T09:08:55.865Z,61
2016-04-09T09:36:58.644Z,59
2016-04-09T09:39:01.180Z,59
2016-04-09T09:41:06.888Z,58
2016-04-09T09:41:17.513Z,58
2016-04-09T09:41:33.747Z,58
2016-04-09T09:42:41.547Z,58
2016-04-09T10:22:21.329Z,51
2016-04-09T10:22:33.454Z,51
2016-04-09T10:23:44.316Z,51
2016-04-09T10:23:55.740Z,51
2016-04-09T10:24:07.287Z,51
2016-04-09T10:26:13.403Z,51
2016-04-09T10:26:27.121Z,51
2016-04-09T10:26:38.403Z,51
2016-04-09T10:27:50.468Z,52
2016-04-09T10:28:54.596Z,53
2016-04-09T10:30:01.147Z,52
2016-04-09T10:41:22.334Z,52
2016-04-09T10:41:37.131Z,50
2016-04-09T10:41:51.178Z,50
2016-04-09T10:42:55.761Z,50
2016-04-09T10:44:10.717Z,50
2016-04-09T10:45:17.188Z,51
2016-04-09T10:45:29.438Z,51
2016-04-09T10:46:34.925Z,50
2016-04-09T10:46:46.082Z,50
2016-04-09T10:46:58.396Z,50
2016-04-09T10:47:10.427Z,50
2016-04-09T10:47:22.677Z,50
2016-04-09T10:48:33.165Z,51
2016-04-09T10:48:47.290Z,50
2016-04-09T10:48:59.168Z,50
2016-04-09T10:58:35.051Z,48
2016-04-09T10:59:41.506Z,48
2016-04-09T11:00:46.087Z,48
2016-04-09T11:00:57.247Z,47
2016-04-09T11:07:36.075Z,49
2016-04-09T11:08:43.437Z,48
2016-04-09T11:08:56.312Z,49
2016-04-09T11:09:11.284Z,49
2016-04-09T11:09:24.534Z,49
2016-04-09T11:09:36.878Z,49
2016-04-09T11:11:36.228Z,48
2016-04-09T11:11:48.853Z,49
2016-04-09T11:13:08.341Z,49
2016-04-09T11:13:19.419Z,49
2016-04-09T11:13:37.154Z,49
2016-04-09T11:13:49.419Z,48
2016-04-09T11:14:03.516Z,48
2016-04-09T11:14:20.782Z,48
2016-04-09T11:14:32.313Z,48
2016-04-09T11:14:45.032Z,48
2016-04-09T11:15:55.206Z,48
2016-04-09T11:16:07.678Z,48
2016-04-09T11:16:44.053Z,48
2016-04-09T11:16:55.772Z,48
2016-04-09T11:17:09.227Z,47
2016-04-09T11:17:21.430Z,47
2016-04-09T11:18:30.199Z,47
2016-04-09T11:18:43.558Z,47
2016-04-09T11:18:54.777Z,47
2016-04-09T11:19:07.013Z,47
2016-04-09T11:19:17.529Z,47
2016-04-09T11:20:35.094Z,48
2016-04-09T11:26:40.861Z,45
2016-04-09T11:28:00.304Z,47
2016-04-09T11:28:13.648Z,48
2016-04-09T11:43:58.284Z,46
2016-04-09T11:44:11.472Z,46
2016-04-09T11:44:25.956Z,46
2016-04-09T11:45:38.005Z,45
2016-04-09T11:46:48.055Z,45
2016-04-09T11:46:59.808Z,45
2016-04-09T12:02:10.317Z,45
2016-04-09T12:02:31.004Z,46
2016-04-09T12:03:38.757Z,45
2016-04-09T12:03:57.101Z,45
2016-04-09T12:04:16.931Z,45
2016-04-09T12:04:32.244Z,45
2016-04-09T12:04:44.556Z,45
2016-04-09T12:04:58.340Z,45
2016-04-09T12:06:10.687Z,45
2016-04-09T12:06:24.187Z,44
2016-04-09T12:08:23.348Z,44
2016-04-09T12:09:25.851Z,44
2016-04-09T12:09:44.305Z,44
2016-04-09T12:10:53.900Z,44
2016-04-09T12:38:26.008Z,44
2016-04-09T12:38:36.492Z,44
2016-04-09T12:38:48.039Z,44
2016-04-09T12:39:55.011Z,44
2016-04-09T12:41:11.625Z,43
2016-04-09T12:42:21.643Z,44
2016-04-09T12:42:34.268Z,44
2016-04-09T12:42:46.471Z,44
2016-04-09T12:42:57.330Z,44
2016-04-09T12:44:08.289Z,43
2016-04-09T12:44:20.727Z,43
2016-04-09T12:44:33.852Z,43
2016-04-09T12:44:48.024Z,43
2016-04-09T12:45:04.105Z,43
2016-04-09T12:46:16.389Z,43
2016-04-09T12:46:34.217Z,43
2016-04-09T12:50:54.602Z,44
2016-04-09T12:51:15.011Z,43
2016-04-09T12:51:26.261Z,43
2016-04-09T12:53:34.080Z,44
2016-04-09T12:54:39.052Z,44
2016-04-09T12:54:49.942Z,44
2016-04-09T12:55:01.975Z,44
2016-04-09T12:56:12.446Z,43
2016-04-09T13:41:59.192Z,41
2016-04-09T13:42:12.820Z,41
2016-04-09T13:42:23.930Z,41
2016-04-09T13:43:26.464Z,40
2016-04-09T13:44:38.263Z,39
2016-04-09T13:44:49.716Z,39
2016-04-09T13:45:57.345Z,39
2016-04-09T13:46:16.019Z,38
2016-04-09T13:46:28.347Z,38
2016-04-09T13:46:43.347Z,38
2016-04-09T13:48:55.134Z,38
2016-04-09T13:49:13.433Z,38
2016-04-09T13:49:25.730Z,38
2016-04-09T13:49:36.074Z,38
2016-04-09T13:49:47.527Z,38
2016-04-09T13:51:13.797Z,38
2016-04-09T13:51:25.985Z,38
2016-04-09T13:52:40.425Z,38
2016-04-09T13:52:51.832Z,38
2016-04-09T13:54:02.210Z,38
2016-04-09T13:55:21.871Z,38
2016-04-09T13:55:33.371Z,38
2016-04-09T13:55:44.933Z,38
2016-04-09T13:55:56.933Z,38
2016-04-09T13:56:09.936Z,39
2016-04-09T13:57:14.095Z,39
2016-04-09T13:57:25.266Z,39
2016-04-09T13:57:37.095Z,39
2016-04-09T13:57:55.548Z,39
2016-04-09T13:58:07.941Z,38
2016-04-09T13:59:18.132Z,38
2016-04-09T13:59:36.835Z,38
2016-04-09T13:59:47.491Z,38
2016-04-09T14:36:29.856Z,42
2016-04-09T14:38:31.612Z,40
2016-04-09T14:38:51.846Z,40
2016-04-09T14:39:02.315Z,40
2016-04-09T14:39:14.568Z,40
2016-04-09T14:39:35.068Z,40
2016-04-09T14:40:44.883Z,40
2016-04-09T14:40:56.493Z,40
2016-04-09T14:41:07.572Z,40
2016-04-09T14:41:18.384Z,40
2016-04-09T14:41:38.931Z,40
2016-04-09T14:41:50.650Z,40
2016-04-09T14:42:05.716Z,40
2016-04-09T14:42:24.794Z,40
2016-04-09T14:42:43.762Z,40
2016-04-09T14:43:46.328Z,40
2016-04-09T14:43:57.047Z,41
2016-04-09T14:44:09.222Z,41
2016-04-09T14:54:39.842Z,41
2016-04-09T14:55:48.532Z,42
2016-04-09T14:56:57.410Z,42
2016-04-09T14:57:10.225Z,41
2016-04-09T14:58:16.088Z,41
2016-04-09T14:58:28.510Z,41
2016-04-09T14:58:41.353Z,42
2016-04-09T14:59:46.825Z,42
2016-04-09T15:00:02.934Z,42
2016-04-09T15:01:19.893Z,42
2016-04-09T15:02:24.332Z,42
2016-04-09T15:23:01.636Z,41
2016-04-09T15:23:15.514Z,40
2016-04-09T15:24:27.486Z,40
2016-04-09T15:25:30.128Z,40
2016-04-09T15:26:37.553Z,41
2016-04-09T15:26:48.475Z,41
2016-04-09T15:27:00.866Z,41
2016-04-09T15:27:18.791Z,41
2016-04-09T15:27:30.400Z,41
2016-04-09T15:28:41.933Z,40
2016-04-09T15:29:50.968Z,41
2016-04-09T15:30:01.499Z,41
2016-04-09T15:31:07.457Z,41
2016-04-09T15:31:19.191Z,41
2016-04-09T15:32:30.226Z,41
2016-04-09T15:32:42.007Z,41
2016-04-09T15:32:54.554Z,41
2016-04-09T15:33:07.009Z,41
2016-04-09T15:33:17.712Z,41
2016-04-09T15:34:27.512Z,40
2016-04-09T15:36:29.190Z,40
2016-04-09T15:37:40.130Z,40
2016-04-09T16:07:26.368Z,40
2016-04-09T16:07:38.540Z,40
2016-04-09T16:07:59.978Z,40
2016-04-09T16:08:12.605Z,40
2016-04-09T16:11:15.197Z,38
2016-04-09T16:11:32.681Z,40
2016-04-09T16:11:45.447Z,39
2016-04-09T16:11:57.494Z,39
2016-04-09T16:12:14.297Z,39
2016-04-09T16:12:25.672Z,39
2016-04-09T16:13:39.181Z,40
2016-04-09T16:16:21.696Z,40
2016-04-09T16:43:43.466Z,40
2016-04-09T16:43:56.903Z,40
2016-04-09T16:44:16.000Z,41
2016-04-09T16:44:27.406Z,40
2016-04-09T16:44:38.578Z,40
2016-04-09T16:44:51.094Z,40
2016-04-09T16:45:02.735Z,40
2016-04-09T16:45:17.034Z,40
2016-04-09T16:45:29.503Z,40
2016-04-09T16:45:40.253Z,40
2016-04-09T16:45:51.113Z,40
2016-04-09T16:46:55.943Z,41
2016-04-09T16:48:16.776Z,41
2016-04-09T16:48:32.885Z,41
2016-04-09T16:48:45.151Z,41
2016-04-09T16:48:56.432Z,41
2016-04-09T16:49:10.701Z,41
2016-04-09T16:49:20.748Z,41
2016-04-09T16:49:33.138Z,40
2016-04-09T16:49:48.982Z,40
2016-04-09T16:50:00.638Z,41
2016-04-09T16:50:15.391Z,41
2016-04-09T17:02:19.408Z,44
2016-04-09T17:02:34.814Z,44
2016-04-09T17:03:41.847Z,44
2016-04-09T17:03:54.956Z,44
2016-04-09T17:05:07.320Z,44
2016-04-09T17:05:25.759Z,45
2016-04-09T17:05:37.869Z,45
2016-04-09T17:05:57.306Z,45
2016-04-09T17:06:08.884Z,45
2016-04-09T17:08:14.377Z,44
2016-04-09T17:08:27.080Z,44
2016-04-09T17:08:39.314Z,44
2016-04-09T17:08:54.174Z,45
2016-04-09T17:09:09.205Z,45
2016-04-09T17:10:19.180Z,45
2016-04-09T17:10:30.914Z,45
2016-04-09T17:27:17.646Z,47
2016-04-09T17:28:38.415Z,47
2016-04-09T17:47:09.714Z,48
2016-04-09T17:53:33.014Z,48
2016-04-09T17:55:42.175Z,49
2016-04-09T18:05:49.203Z,50
2016-04-09T18:06:01.031Z,50
2016-04-09T18:06:12.140Z,50
2016-04-09T18:13:17.537Z,52
2016-04-09T18:13:35.350Z,52
2016-04-09T18:13:45.709Z,52
2016-04-09T18:14:54.368Z,52
2016-04-09T18:15:06.243Z,52
2016-04-09T18:15:17.246Z,52
2016-04-09T18:34:33.952Z,52
2016-04-09T18:34:44.202Z,52
2016-04-09T18:41:51.362Z,52
2016-04-09T18:42:06.940Z,52
2016-04-09T18:42:17.006Z,52
2016-04-09T18:42:28.599Z,52
2016-04-09T18:42:39.068Z,52
2016-04-09T18:42:56.709Z,52
2016-04-09T18:43:13.931Z,52
2016-04-09T18:43:25.321Z,52
2016-04-09T18:43:35.337Z,52
2016-04-09T18:51:11.200Z,52
2016-04-09T18:58:35.549Z,53
2016-04-09T18:58:46.392Z,53
2016-04-09T18:59:05.439Z,52
2016-04-09T18:59:16.160Z,52
2016-04-09T19:00:27.336Z,52
2016-04-09T19:01:30.588Z,53
2016-04-09T19:01:42.604Z,53
2016-04-09T19:01:53.119Z,53
2016-04-09T19:02:03.666Z,53
2016-04-09T19:02:14.419Z,53
2016-04-09T19:02:38.153Z,53
2016-04-09T19:02:49.825Z,53
2016-04-09T19:03:01.091Z,53
2016-04-09T19:03:11.716Z,53
2016-04-09T19:03:22.688Z,53
2016-04-09T19:03:36.485Z,52
2016-04-09T19:03:46.828Z,52
2016-04-09T19:03:57.203Z,52
2016-04-09T19:04:14.972Z,52
2016-04-09T19:04:25.519Z,52
2016-04-09T19:04:35.784Z,52
2016-04-09T19:11:43.709Z,52
2016-04-09T19:11:53.896Z,52
2016-04-09T19:12:05.318Z,52
2016-04-09T19:12:16.070Z,52
2016-04-09T19:19:19.449Z,52
2016-04-09T19:19:28.887Z,52
2016-04-09T19:19:45.918Z,52
2016-04-09T19:19:55.090Z,52
2016-04-09T19:20:05.856Z,52
2016-04-09T19:20:16.436Z,51
2016-04-09T19:21:05.186Z,51
2016-04-09T19:21:16.110Z,51
2016-04-09T19:21:25.375Z,51
2016-04-09T19:21:35.063Z,52
2016-04-09T19:21:45.532Z,52
2016-04-09T19:21:55.641Z,52
2016-04-09T19:22:05.282Z,52
2016-04-09T19:23:18.678Z,52
2016-04-09T19:23:29.022Z,52
2016-04-09T19:23:38.491Z,52
2016-04-09T19:24:43.212Z,53
2016-04-09T19:24:53.478Z,53
2016-04-09T19:25:04.994Z,53
2016-04-09T19:26:08.731Z,53
2016-04-09T19:26:18.265Z,53
2016-04-09T19:27:28.830Z,53
2016-04-09T19:27:39.408Z,53
2016-04-09T19:28:47.019Z,53
2016-04-09T19:28:56.644Z,53
2016-04-09T19:29:06.207Z,53
2016-04-09T19:29:45.710Z,53
2016-04-09T19:31:46.700Z,53
2016-04-09T19:32:00.435Z,53
2016-04-09T19:32:17.530Z,52
2016-04-09T19:32:27.624Z,52
2016-04-09T19:32:51.687Z,52
2016-04-09T19:33:01.202Z,52
2016-04-09T19:33:14.421Z,52
2016-04-09T19:33:24.315Z,52
2016-04-09T19:33:33.986Z,52
2016-04-09T19:33:44.690Z,52
2016-04-09T19:33:54.690Z,52
2016-04-09T19:34:04.924Z,52
2016-04-09T19:34:14.549Z,52
2016-04-09T19:34:23.880Z,52
2016-04-09T19:34:33.193Z,52
2016-04-09T19:34:43.286Z,52
2016-04-09T19:34:54.724Z,52
2016-04-09T19:35:06.380Z,52
2016-04-09T19:35:16.586Z,52
2016-04-09T19:35:26.758Z,52
2016-04-09T19:35:36.602Z,52
2016-04-09T19:35:46.867Z,53
2016-04-09T19:35:57.539Z,53
2016-04-09T19:36:07.867Z,53
2016-04-09T19:36:19.776Z,53
2016-04-09T19:36:29.057Z,53
2016-04-09T19:36:38.823Z,53
2016-04-09T19:36:56.307Z,53
2016-04-09T19:37:06.307Z,53
2016-04-09T19:37:15.729Z,53
2016-04-09T19:37:25.763Z,53
2016-04-09T19:37:42.794Z,53
2016-04-09T20:19:13.482Z,52
2016-04-09T20:19:23.564Z,52
2016-04-09T20:19:34.767Z,52
2016-04-09T20:19:45.735Z,52
2016-04-09T20:34:11.273Z,52
2016-04-09T20:41:31.248Z,52
2016-04-09T20:41:42.513Z,52
2016-04-09T20:41:52.560Z,52
2016-04-09T20:42:02.591Z,52
2016-04-09T20:42:12.685Z,52
2016-04-09T20:42:23.766Z,52
2016-04-09T20:42:33.860Z,52
2016-04-09T20:42:43.938Z,52
2016-04-09T20:42:54.001Z,52
2016-04-09T20:43:04.672Z,52
2016-04-09T20:43:15.157Z,52
2016-04-09T20:43:25.457Z,52
2016-04-09T20:43:44.504Z,52
2016-04-09T20:43:54.519Z,52
2016-04-09T20:44:04.660Z,52
2016-04-09T20:44:15.347Z,52
2016-04-09T20:44:25.302Z,52
2016-04-09T20:44:35.302Z,52
2016-04-09T20:52:58.481Z,53
2016-04-09T20:53:08.387Z,53
2016-04-09T20:53:18.687Z,53
2016-04-09T20:53:29.327Z,53
2016-04-09T20:53:39.843Z,53
2016-04-09T20:53:49.749Z,53
2016-04-09T20:53:59.734Z,53
2016-04-09T20:54:09.968Z,53
2016-04-09T20:54:19.829Z,53
2016-04-09T20:54:29.783Z,53
2016-04-09T20:54:39.783Z,53
2016-04-09T20:54:49.751Z,53
2016-04-09T20:54:59.923Z,53
2016-04-09T20:55:19.129Z,53
2016-04-09T20:55:29.192Z,53
2016-04-09T20:55:39.598Z,53
2016-04-09T20:55:57.348Z,53
2016-04-09T20:56:07.442Z,53
2016-04-09T20:56:17.332Z,53
2016-04-09T20:56:27.647Z,53
2016-04-09T20:56:38.194Z,53
2016-04-09T20:56:49.038Z,53
2016-04-09T20:56:59.553Z,53
2016-04-09T20:57:09.959Z,53
2016-04-09T20:57:19.853Z,53
2016-04-09T20:57:37.259Z,53
2016-04-09T20:57:54.791Z,53
2016-04-09T20:58:04.728Z,53
2016-04-09T20:58:14.587Z,53
2016-04-09T20:58:24.497Z,53
2016-04-09T20:58:41.653Z,53
2016-04-09T20:58:52.637Z,53
2016-04-09T20:59:02.606Z,53
2016-04-09T20:59:19.827Z,53
2016-04-09T20:59:29.686Z,53
2016-04-09T20:59:39.655Z,53
2016-04-09T20:59:49.514Z,53
2016-04-09T20:59:59.624Z,53
2016-04-09T21:00:09.905Z,53
2016-04-09T21:00:29.049Z,53
2016-04-09T21:00:39.064Z,53
2016-04-09T21:13:13.627Z,54
2016-04-09T21:13:24.084Z,54
2016-04-09T21:13:33.443Z,54
2016-04-09T21:13:42.693Z,54
2016-04-09T21:13:52.146Z,54
2016-04-09T21:14:01.677Z,54
2016-04-09T21:14:10.943Z,54
2016-04-09T21:15:16.414Z,54
2016-04-09T21:15:26.229Z,53
2016-04-09T21:15:35.464Z,53
2016-04-09T21:15:51.964Z,53
2016-04-09T21:16:01.104Z,53
2016-04-09T21:16:18.714Z,53
2016-04-09T21:17:26.609Z,53
2016-04-09T21:17:35.984Z,53
2016-04-09T21:17:45.140Z,53
2016-04-09T21:17:54.250Z,53
2016-04-09T21:18:03.469Z,53
2016-04-09T21:18:13.453Z,53
2016-04-09T21:18:22.582Z,53
2016-04-09T21:18:31.879Z,53
2016-04-09T21:18:41.051Z,54
2016-04-09T21:18:50.160Z,53
2016-04-09T21:20:08.537Z,53
2016-04-09T21:21:23.684Z,54
2016-04-09T21:21:34.402Z,54
2016-04-09T21:21:44.074Z,54
2016-04-09T21:21:53.324Z,54
2016-04-09T21:22:02.652Z,54
2016-04-09T21:22:13.699Z,54
2016-04-09T21:22:29.998Z,54
2016-04-09T21:22:39.514Z,54
2016-04-09T21:22:48.889Z,54
2016-04-09T21:22:59.139Z,54
2016-04-09T21:23:59.501Z,54
2016-04-09T21:24:16.173Z,54
2016-04-09T21:24:27.331Z,54
2016-04-09T21:24:36.550Z,54
2016-04-09T21:24:46.019Z,54
2016-04-09T21:24:55.800Z,54
2016-04-09T21:25:04.956Z,54
2016-04-09T21:25:16.191Z,54
2016-04-09T21:25:25.445Z,54
2016-04-09T21:25:35.210Z,54
2016-04-09T21:25:44.429Z,54
2016-04-09T21:25:53.679Z,54
2016-04-09T21:26:02.929Z,54
2016-04-09T21:26:12.163Z,54
2016-04-09T21:26:22.322Z,54
2016-04-09T21:26:31.556Z,54
2016-04-09T21:26:41.931Z,54
2016-04-09T21:26:58.712Z,54
2016-04-09T21:44:30.620Z,55
2016-04-09T21:44:39.807Z,55
2016-04-09T21:56:26.934Z,55
2016-04-09T21:56:36.481Z,57
2016-04-09T21:56:46.887Z,57
2016-04-09T21:56:55.996Z,57
2016-04-09T21:57:06.059Z,57
2016-04-09T21:58:20.501Z,57
2016-04-09T21:58:29.876Z,57
2016-04-09T21:58:39.064Z,57
2016-04-09T21:58:50.673Z,57
2016-04-09T21:59:00.205Z,57
2016-04-09T21:59:09.517Z,57
2016-04-09T21:59:25.863Z,57
2016-04-09T21:59:35.066Z,57